createdAt,value
2018-12-18T00:01:43.797Z,2.20
2018-12-18T00:04:12.006Z,2.20
2018-12-18T00:06:40.252Z,2.20
2018-12-18T00:09:08.629Z,2.20
2018-12-18T00:11:36.946Z,2.20
2018-12-18T00:14:05.181Z,2.20
2018-12-18T00:16:33.408Z,2.20
2018-12-18T00:19:01.642Z,2.20
2018-12-18T00:21:29.883Z,2.20
2018-12-18T00:23:58.107Z,2.20
2018-12-18T00:26:26.342Z,2.20
2018-12-18T00:28:54.587Z,2.20
2018-12-18T00:31:22.962Z,2.20
2018-12-18T00:33:51.155Z,2.30
2018-12-18T00:36:19.362Z,2.30
2018-12-18T00:38:47.594Z,2.30
2018-12-18T00:41:15.811Z,2.30
2018-12-18T00:43:44.105Z,2.30
2018-12-18T00:46:12.374Z,2.30
2018-12-18T00:48:40.613Z,2.30
2018-12-18T00:51:08.829Z,2.30
2018-12-18T00:53:37.285Z,2.30
2018-12-18T00:56:05.521Z,2.30
2018-12-18T00:58:33.762Z,2.40
2018-12-18T01:01:01.963Z,2.40
2018-12-18T01:03:30.194Z,2.40
2018-12-18T01:05:58.423Z,2.40
2018-12-18T01:08:26.672Z,2.40
2018-12-18T01:10:54.886Z,2.40
2018-12-18T01:13:23.118Z,2.40
2018-12-18T01:15:51.338Z,2.40
2018-12-18T01:18:19.571Z,2.40
2018-12-18T01:20:47.873Z,2.40
2018-12-18T01:23:16.226Z,2.40
2018-12-18T01:25:44.442Z,2.40
2018-12-18T01:28:12.718Z,2.50
2018-12-18T01:30:40.981Z,2.50
2018-12-18T01:33:09.238Z,2.50
2018-12-18T01:35:37.457Z,2.50
2018-12-18T01:38:05.678Z,2.50
2018-12-18T01:40:33.907Z,2.50
2018-12-18T01:43:02.136Z,2.50
2018-12-18T01:45:30.354Z,2.50
2018-12-18T01:47:58.587Z,2.50
2018-12-18T01:50:26.799Z,2.50
2018-12-18T01:52:55.018Z,2.50
2018-12-18T01:55:23.222Z,2.50
2018-12-18T01:57:51.414Z,2.60
2018-12-18T02:00:19.665Z,2.60
2018-12-18T02:02:47.886Z,2.60
2018-12-18T02:05:16.057Z,2.60
2018-12-18T02:07:44.296Z,2.60
2018-12-18T02:10:12.463Z,2.60
2018-12-18T02:12:40.759Z,2.60
2018-12-18T02:15:09.097Z,2.60
2018-12-18T02:17:37.289Z,2.60
2018-12-18T02:20:06.934Z,2.60
2018-12-18T02:22:35.340Z,2.60
2018-12-18T02:25:04.815Z,2.60
2018-12-18T02:27:33.138Z,2.60
2018-12-18T02:30:01.548Z,2.60
2018-12-18T02:32:29.739Z,2.60
2018-12-18T02:34:57.963Z,2.70
2018-12-18T02:37:26.578Z,2.70
2018-12-18T02:39:54.999Z,2.70
2018-12-18T02:42:23.178Z,2.70
2018-12-18T02:44:51.390Z,2.70
2018-12-18T02:47:19.587Z,2.70
2018-12-18T02:49:47.802Z,2.70
2018-12-18T02:52:15.985Z,2.70
2018-12-18T02:54:44.212Z,2.70
2018-12-18T02:57:12.475Z,2.70
2018-12-18T02:59:40.851Z,2.80
2018-12-18T03:02:09.108Z,2.70
2018-12-18T03:04:37.326Z,2.80
2018-12-18T03:07:05.629Z,2.70
2018-12-18T03:09:33.988Z,2.70
2018-12-18T03:12:02.246Z,2.80
2018-12-18T03:14:30.451Z,2.70
2018-12-18T03:16:58.627Z,2.70
2018-12-18T03:19:26.830Z,2.70
2018-12-18T03:21:55.008Z,2.70
2018-12-18T03:24:23.241Z,2.60
2018-12-18T03:26:51.421Z,2.60
2018-12-18T03:29:19.636Z,2.60
2018-12-18T03:31:52.327Z,2.60
2018-12-18T03:34:20.536Z,2.60
2018-12-18T03:36:48.699Z,2.60
2018-12-18T03:39:16.922Z,2.50
2018-12-18T03:41:45.189Z,2.50
2018-12-18T03:44:13.378Z,2.50
2018-12-18T03:46:41.635Z,2.50
2018-12-18T03:49:09.817Z,2.50
2018-12-18T03:51:38.024Z,2.50
2018-12-18T03:54:06.289Z,2.50
2018-12-18T03:56:34.473Z,2.50
2018-12-18T03:59:02.757Z,2.40
2018-12-18T04:01:30.938Z,2.40
2018-12-18T04:03:59.127Z,2.40
2018-12-18T04:06:27.293Z,2.30
2018-12-18T04:08:55.573Z,2.30
2018-12-18T04:11:23.758Z,2.30
2018-12-18T04:13:51.952Z,2.30
2018-12-18T04:16:20.142Z,2.30
2018-12-18T04:18:48.335Z,2.30
2018-12-18T04:21:16.591Z,2.30
2018-12-18T04:23:44.789Z,2.20
2018-12-18T04:26:12.949Z,2.20
2018-12-18T04:28:41.159Z,2.20
2018-12-18T04:31:09.354Z,2.20
2018-12-18T04:33:37.638Z,2.20
2018-12-18T04:36:05.807Z,2.20
2018-12-18T04:38:33.993Z,2.20
2018-12-18T04:41:02.176Z,2.20
2018-12-18T04:43:30.454Z,2.20
2018-12-18T04:45:58.626Z,2.20
2018-12-18T04:48:26.871Z,2.20
2018-12-18T04:50:55.060Z,2.20
2018-12-18T04:53:23.477Z,2.20
2018-12-18T04:55:51.651Z,2.20
2018-12-18T04:58:19.966Z,2.20
2018-12-18T05:00:48.413Z,2.20
2018-12-18T05:03:16.706Z,2.20
2018-12-18T05:05:44.966Z,2.20
2018-12-18T05:08:13.131Z,2.30
2018-12-18T05:10:41.308Z,2.20
2018-12-18T05:13:09.522Z,2.20
2018-12-18T05:15:37.714Z,2.20
2018-12-18T05:18:05.960Z,2.20
2018-12-18T05:20:34.137Z,2.20
2018-12-18T05:23:02.399Z,2.20
2018-12-18T05:25:30.592Z,2.20
2018-12-18T05:27:58.860Z,2.20
2018-12-18T05:30:27.064Z,2.20
2018-12-18T05:32:55.233Z,2.20
2018-12-18T05:35:23.420Z,2.20
2018-12-18T05:37:51.599Z,2.20
2018-12-18T05:40:19.868Z,2.20
2018-12-18T05:42:48.049Z,2.20
2018-12-18T05:45:16.243Z,2.20
2018-12-18T05:47:44.437Z,2.20
2018-12-18T05:50:12.711Z,2.20
2018-12-18T05:52:40.882Z,2.10
2018-12-18T05:55:09.077Z,2.10
2018-12-18T05:57:37.249Z,2.10
2018-12-18T06:00:05.686Z,2.10
2018-12-18T06:02:33.904Z,2.10
2018-12-18T06:05:03.344Z,2.10
2018-12-18T06:07:31.770Z,2.10
2018-12-18T06:10:00.046Z,0.90
2018-12-18T06:12:28.233Z,2.10
2018-12-18T06:14:56.427Z,2.10
2018-12-18T06:17:24.593Z,2.10
2018-12-18T06:19:52.831Z,2.10
2018-12-18T06:22:21.024Z,2.10
2018-12-18T06:24:49.237Z,2.10
2018-12-18T06:27:17.425Z,2.10
2018-12-18T06:29:45.680Z,2.10
2018-12-18T06:32:13.871Z,2.10
2018-12-18T06:34:42.149Z,2.10
2018-12-18T06:37:10.333Z,2.10
2018-12-18T06:39:38.570Z,2.10
2018-12-18T06:42:06.881Z,2.10
2018-12-18T06:44:35.099Z,2.00
2018-12-18T06:47:03.419Z,2.10
2018-12-18T06:49:31.641Z,2.00
2018-12-18T06:51:59.850Z,2.00
2018-12-18T06:54:28.076Z,2.00
2018-12-18T06:56:56.339Z,1.90
2018-12-18T06:59:24.576Z,1.90
2018-12-18T07:01:52.802Z,1.90
2018-12-18T07:04:21.050Z,1.90
2018-12-18T07:06:49.359Z,1.90
2018-12-18T07:09:17.571Z,1.90
2018-12-18T07:11:45.834Z,1.80
2018-12-18T07:14:14.034Z,1.80
2018-12-18T07:16:42.236Z,1.80
2018-12-18T07:19:10.490Z,1.80
2018-12-18T07:21:38.890Z,1.80
2018-12-18T07:24:07.179Z,1.80
2018-12-18T07:26:35.364Z,1.80
2018-12-18T07:29:03.741Z,1.70
2018-12-18T07:31:31.949Z,1.70
2018-12-18T07:34:00.143Z,1.70
2018-12-18T07:36:28.338Z,1.60
2018-12-18T07:38:56.563Z,1.60
2018-12-18T07:41:24.753Z,1.60
2018-12-18T07:43:52.958Z,1.60
2018-12-18T07:46:21.162Z,1.60
2018-12-18T07:48:49.381Z,1.60
2018-12-18T07:51:17.587Z,1.60
2018-12-18T07:53:45.787Z,1.60
2018-12-18T07:56:14.003Z,1.60
2018-12-18T07:58:42.191Z,1.60
2018-12-18T08:01:10.413Z,1.60
2018-12-18T08:03:38.616Z,1.50
2018-12-18T08:06:06.987Z,1.60
2018-12-18T08:08:35.157Z,1.60
2018-12-18T08:11:03.442Z,1.60
2018-12-18T08:13:31.639Z,1.60
2018-12-18T08:15:59.865Z,1.70
2018-12-18T08:18:28.053Z,1.70
2018-12-18T08:20:56.350Z,1.70
2018-12-18T08:23:24.549Z,1.60
2018-12-18T08:25:52.768Z,1.60
2018-12-18T08:28:20.943Z,1.60
2018-12-18T08:30:49.149Z,1.70
2018-12-18T08:33:17.332Z,1.70
2018-12-18T08:35:46.010Z,1.80
2018-12-18T08:38:14.205Z,1.80
2018-12-18T08:40:42.405Z,1.80
2018-12-18T08:43:10.686Z,1.80
2018-12-18T08:45:38.892Z,1.90
2018-12-18T08:48:07.102Z,1.90
2018-12-18T08:50:35.325Z,2.00
2018-12-18T08:53:03.769Z,2.00
2018-12-18T08:55:32.048Z,2.00
2018-12-18T08:58:00.382Z,2.10
2018-12-18T09:00:28.585Z,2.10
2018-12-18T09:02:56.767Z,2.20
2018-12-18T09:05:25.145Z,2.20
2018-12-18T09:07:53.444Z,2.20
2018-12-18T09:10:21.733Z,2.30
2018-12-18T09:12:49.981Z,2.30
2018-12-18T09:15:23.651Z,2.40
2018-12-18T09:17:51.879Z,2.40
2018-12-18T09:20:20.077Z,2.50
2018-12-18T09:22:48.244Z,2.50
2018-12-18T09:25:16.476Z,2.60
2018-12-18T09:27:44.699Z,2.60
2018-12-18T09:30:12.902Z,2.60
2018-12-18T09:32:41.104Z,2.70
2018-12-18T09:35:09.318Z,2.70
2018-12-18T09:37:37.508Z,2.70
2018-12-18T09:40:07.696Z,2.80
2018-12-18T09:42:41.183Z,2.80
2018-12-18T09:45:09.459Z,2.80
2018-12-18T09:47:37.653Z,2.90
2018-12-18T09:50:06.872Z,2.90
2018-12-18T09:52:35.064Z,3.00
2018-12-18T09:55:03.449Z,3.10
2018-12-18T09:57:37.190Z,3.10
2018-12-18T10:00:07.679Z,3.20
2018-12-18T10:02:35.930Z,3.20
2018-12-18T10:05:04.462Z,3.30
2018-12-18T10:07:32.645Z,3.30
2018-12-18T10:10:00.870Z,3.40
2018-12-18T10:12:34.429Z,3.50
2018-12-18T10:15:02.630Z,3.60
2018-12-18T10:17:30.820Z,3.70
2018-12-18T10:19:59.021Z,3.80
2018-12-18T10:22:27.213Z,3.90
2018-12-18T10:24:55.442Z,3.90
2018-12-18T10:27:23.643Z,4.00
2018-12-18T10:29:52.001Z,4.10
2018-12-18T10:32:20.346Z,4.20
2018-12-18T10:34:48.517Z,4.30
2018-12-18T10:37:16.717Z,4.40
2018-12-18T10:39:44.913Z,4.50
2018-12-18T10:42:13.178Z,4.50
2018-12-18T10:44:41.475Z,4.70
2018-12-18T10:47:09.669Z,4.80
2018-12-18T10:49:37.887Z,5.10
2018-12-18T10:52:06.154Z,5.20
2018-12-18T10:54:34.479Z,5.20
2018-12-18T10:57:02.658Z,5.10
2018-12-18T10:59:30.838Z,5.20
2018-12-18T11:02:01.112Z,5.20
2018-12-18T11:04:29.366Z,5.20
2018-12-18T11:06:57.605Z,5.20
2018-12-18T11:09:25.786Z,5.30
2018-12-18T11:11:54.056Z,5.30
2018-12-18T11:14:22.338Z,5.50
2018-12-18T11:16:50.634Z,5.80
2018-12-18T11:19:18.810Z,5.90
2018-12-18T11:21:47.004Z,6.10
2018-12-18T11:24:15.168Z,6.10
2018-12-18T11:26:43.366Z,6.10
2018-12-18T11:29:11.570Z,6.00
2018-12-18T11:31:39.766Z,5.90
2018-12-18T11:34:08.124Z,5.90
2018-12-18T11:36:36.403Z,5.90
2018-12-18T11:39:07.005Z,6.00
2018-12-18T11:41:35.450Z,6.00
2018-12-18T11:44:03.823Z,6.10
2018-12-18T11:46:32.091Z,6.10
2018-12-18T11:49:00.255Z,6.10
2018-12-18T11:51:28.450Z,6.10
2018-12-18T11:53:56.618Z,6.10
2018-12-18T11:56:24.806Z,6.20
2018-12-18T11:58:52.971Z,6.30
2018-12-18T12:01:21.255Z,6.20
2018-12-18T12:03:49.437Z,5.90
2018-12-18T12:06:22.960Z,5.60
2018-12-18T12:08:47.820Z,5.60
2018-12-18T12:11:16.010Z,5.80
2018-12-18T12:13:44.194Z,6.10
2018-12-18T12:16:12.464Z,6.40
2018-12-18T12:18:40.625Z,6.70
2018-12-18T12:21:08.797Z,6.70
2018-12-18T12:23:36.961Z,6.60
2018-12-18T12:26:10.581Z,6.50
2018-12-18T12:28:38.801Z,6.50
2018-12-18T12:31:06.970Z,6.70
2018-12-18T12:33:35.130Z,6.80
2018-12-18T12:36:03.509Z,6.80
2018-12-18T12:38:31.678Z,6.70
2018-12-18T12:40:59.899Z,6.50
2018-12-18T12:43:28.107Z,6.40
2018-12-18T12:45:56.418Z,6.30
2018-12-18T12:48:28.861Z,6.30
2018-12-18T12:50:57.036Z,6.30
2018-12-18T12:53:25.261Z,6.30
2018-12-18T12:55:53.531Z,6.10
2018-12-18T12:58:21.727Z,5.90
2018-12-18T13:00:49.891Z,5.70
2018-12-18T13:03:18.156Z,5.60
2018-12-18T13:05:46.411Z,5.60
2018-12-18T13:08:14.697Z,5.60
2018-12-18T13:10:42.873Z,5.60
2018-12-18T13:13:11.054Z,5.70
2018-12-18T13:15:39.230Z,5.90
2018-12-18T13:18:07.439Z,5.90
2018-12-18T13:20:35.617Z,5.80
2018-12-18T13:23:03.895Z,5.70
2018-12-18T13:25:32.095Z,5.60
2018-12-18T13:28:00.295Z,5.70
2018-12-18T13:30:28.509Z,5.70
2018-12-18T13:32:56.710Z,5.70
2018-12-18T13:35:24.878Z,5.70
2018-12-18T13:37:53.059Z,5.80
2018-12-18T13:40:21.229Z,5.90
2018-12-18T13:42:49.462Z,6.00
2018-12-18T13:45:17.626Z,6.00
2018-12-18T13:47:45.829Z,6.00
2018-12-18T13:50:14.014Z,5.90
2018-12-18T13:52:42.354Z,5.80
2018-12-18T13:55:10.540Z,5.80
2018-12-18T13:57:38.754Z,5.70
2018-12-18T14:00:07.074Z,5.60
2018-12-18T14:02:35.249Z,5.50
2018-12-18T14:05:03.588Z,5.40
2018-12-18T14:07:31.793Z,5.30
2018-12-18T14:10:00.121Z,5.20
2018-12-18T14:12:28.304Z,5.10
2018-12-18T14:14:56.458Z,5.00
2018-12-18T14:17:24.672Z,5.00
2018-12-18T14:19:52.926Z,4.80
2018-12-18T14:22:21.113Z,4.70
2018-12-18T14:24:49.261Z,4.60
2018-12-18T14:27:17.424Z,4.60
2018-12-18T14:29:45.637Z,4.50
2018-12-18T14:32:13.805Z,4.40
2018-12-18T14:34:41.957Z,4.30
2018-12-18T14:37:10.140Z,4.20
2018-12-18T14:39:45.937Z,4.10
2018-12-18T14:42:14.139Z,4.00
2018-12-18T14:44:42.293Z,4.00
2018-12-18T14:47:10.470Z,3.90
2018-12-18T14:49:38.717Z,3.90
2018-12-18T14:52:06.891Z,3.80
2018-12-18T14:54:35.342Z,3.80
2018-12-18T14:57:03.602Z,3.70
2018-12-18T14:59:31.757Z,3.60
2018-12-18T15:01:59.939Z,3.50
2018-12-18T15:04:28.094Z,3.40
2018-12-18T15:07:02.634Z,3.40
2018-12-18T15:09:26.534Z,3.30
2018-12-18T15:11:54.741Z,3.30
2018-12-18T15:14:22.951Z,3.30
2018-12-18T15:16:51.093Z,3.20
2018-12-18T15:19:19.261Z,3.20
2018-12-18T15:21:47.426Z,3.20
2018-12-18T15:24:15.687Z,3.10
2018-12-18T15:26:43.838Z,3.10
2018-12-18T15:29:12.109Z,3.10
2018-12-18T15:31:40.259Z,3.10
2018-12-18T15:34:08.516Z,3.10
2018-12-18T15:36:36.751Z,3.10
2018-12-18T15:39:06.746Z,3.00
2018-12-18T15:41:35.762Z,3.00
2018-12-18T15:44:04.644Z,3.00
2018-12-18T15:46:32.801Z,3.00
2018-12-18T15:49:00.969Z,3.00
2018-12-18T15:51:29.125Z,3.00
2018-12-18T15:53:57.305Z,2.90
2018-12-18T15:56:25.461Z,2.90
2018-12-18T15:58:53.649Z,2.90
2018-12-18T16:01:21.809Z,2.90
2018-12-18T16:03:49.981Z,2.90
2018-12-18T16:06:18.358Z,2.90
2018-12-18T16:08:46.524Z,2.80
2018-12-18T16:11:14.681Z,2.80
2018-12-18T16:13:42.862Z,2.70
2018-12-18T16:16:11.096Z,2.70
2018-12-18T16:18:39.271Z,2.70
2018-12-18T16:21:07.685Z,2.70
2018-12-18T16:23:35.862Z,2.70
2018-12-18T16:26:04.113Z,2.60
2018-12-18T16:28:32.305Z,2.70
2018-12-18T16:31:00.566Z,2.70
2018-12-18T16:33:28.696Z,2.70
2018-12-18T16:35:56.820Z,2.70
2018-12-18T16:38:24.951Z,2.60
2018-12-18T16:40:53.171Z,2.60
2018-12-18T16:43:21.340Z,2.60
2018-12-18T16:45:49.760Z,2.50
2018-12-18T16:48:17.908Z,2.50
2018-12-18T16:50:46.065Z,2.50
2018-12-18T16:53:14.225Z,2.40
2018-12-18T16:55:42.456Z,2.50
2018-12-18T16:58:10.778Z,2.40
2018-12-18T17:00:38.904Z,2.40
2018-12-18T17:03:07.064Z,2.30
2018-12-18T17:05:35.190Z,2.30
2018-12-18T17:08:03.372Z,2.30
2018-12-18T17:10:31.568Z,2.30
2018-12-18T17:13:00.181Z,2.20
2018-12-18T17:15:28.308Z,2.20
2018-12-18T17:17:56.486Z,2.20
2018-12-18T17:20:24.726Z,2.20
2018-12-18T17:22:52.923Z,2.20
2018-12-18T17:25:21.298Z,2.20
2018-12-18T17:27:49.473Z,2.20
2018-12-18T17:30:17.649Z,2.20
2018-12-18T17:32:45.834Z,2.20
2018-12-18T17:35:14.353Z,2.20
2018-12-18T17:37:42.609Z,2.20
2018-12-18T17:40:10.855Z,2.20
2018-12-18T17:42:39.102Z,2.20
2018-12-18T17:45:07.993Z,2.20
2018-12-18T17:47:36.160Z,2.10
2018-12-18T17:50:05.705Z,2.10
2018-12-18T17:52:33.891Z,2.00
2018-12-18T17:55:02.070Z,2.00
2018-12-18T17:57:30.348Z,2.00
2018-12-18T17:59:58.559Z,2.00
2018-12-18T18:02:26.738Z,2.00
2018-12-18T18:04:54.963Z,2.00
2018-12-18T18:07:23.225Z,2.00
2018-12-18T18:09:51.576Z,1.90
2018-12-18T18:12:19.754Z,1.90
2018-12-18T18:14:47.939Z,1.90
2018-12-18T18:17:16.117Z,1.90
2018-12-18T18:19:44.340Z,1.90
2018-12-18T18:22:12.577Z,1.90
2018-12-18T18:24:40.751Z,1.80
2018-12-18T18:27:08.923Z,1.80
2018-12-18T18:29:37.337Z,1.80
2018-12-18T18:32:05.526Z,1.80
2018-12-18T18:34:33.714Z,1.80
2018-12-18T18:37:01.897Z,1.70
2018-12-18T18:39:30.094Z,1.70
2018-12-18T18:41:58.429Z,1.70
2018-12-18T18:44:26.626Z,1.70
2018-12-18T18:46:54.789Z,1.70
2018-12-18T18:49:23.055Z,1.60
2018-12-18T18:51:51.214Z,1.60
2018-12-18T18:54:19.655Z,1.50
2018-12-18T18:56:47.820Z,1.50
2018-12-18T18:59:16.018Z,1.50
2018-12-18T19:01:44.273Z,1.50
2018-12-18T19:04:12.484Z,1.40
2018-12-18T19:06:40.712Z,1.40
2018-12-18T19:09:09.039Z,1.30
2018-12-18T19:11:37.240Z,1.40
2018-12-18T19:14:05.591Z,1.30
2018-12-18T19:16:33.745Z,1.30
2018-12-18T19:19:01.951Z,1.30
2018-12-18T19:21:30.112Z,1.30
2018-12-18T19:23:58.302Z,1.20
2018-12-18T19:26:26.511Z,1.20
2018-12-18T19:28:54.721Z,1.20
2018-12-18T19:31:23.765Z,1.20
2018-12-18T19:33:51.968Z,1.20
2018-12-18T19:36:20.254Z,1.20
2018-12-18T19:38:48.435Z,1.20
2018-12-18T19:41:16.689Z,1.10
2018-12-18T19:43:45.955Z,1.10
2018-12-18T19:46:14.489Z,1.00
2018-12-18T19:48:42.857Z,1.00
2018-12-18T19:51:11.011Z,1.00
2018-12-18T19:53:39.173Z,0.90
2018-12-18T19:56:07.447Z,0.90
2018-12-18T19:58:35.696Z,0.80
2018-12-18T20:01:04.015Z,0.80
2018-12-18T20:03:32.553Z,0.70
2018-12-18T20:06:00.726Z,0.70
2018-12-18T20:08:28.906Z,0.70
2018-12-18T20:10:57.056Z,0.60
2018-12-18T20:13:25.237Z,0.60
2018-12-18T20:15:53.430Z,0.60
2018-12-18T20:18:21.614Z,0.50
2018-12-18T20:20:49.788Z,0.50
2018-12-18T20:23:17.961Z,0.40
2018-12-18T20:25:46.394Z,0.40
2018-12-18T20:28:14.565Z,0.40
2018-12-18T20:30:42.733Z,0.30
2018-12-18T20:33:10.913Z,0.30
2018-12-18T20:35:39.125Z,0.30
2018-12-18T20:38:07.438Z,0.20
2018-12-18T20:40:35.630Z,0.20
2018-12-18T20:43:03.917Z,0.10
2018-12-18T20:45:32.125Z,0.10
2018-12-18T20:48:00.326Z,0.10
2018-12-18T20:50:28.499Z,0.10
2018-12-18T20:52:56.661Z,0.00
2018-12-18T20:55:24.892Z,-0.10
2018-12-18T20:57:53.078Z,-0.10
2018-12-18T21:00:21.278Z,-0.10
2018-12-18T21:02:49.460Z,-0.20
2018-12-18T21:05:17.869Z,-0.20
2018-12-18T21:07:46.644Z,-0.20
2018-12-18T21:10:14.977Z,-0.20
2018-12-18T21:12:43.275Z,-0.20
2018-12-18T21:15:11.608Z,-0.20
2018-12-18T21:17:39.970Z,-0.20
2018-12-18T21:20:08.786Z,-0.20
2018-12-18T21:22:37.099Z,-0.20
2018-12-18T21:25:06.429Z,-0.20
2018-12-18T21:27:34.726Z,-0.20
2018-12-18T21:30:03.065Z,-0.20
2018-12-18T21:32:31.393Z,-0.30
2018-12-18T21:34:59.733Z,-0.30
2018-12-18T21:37:28.175Z,-0.40
2018-12-18T21:39:56.520Z,-0.40
2018-12-18T21:42:24.904Z,-0.40
2018-12-18T21:44:53.603Z,-0.50
2018-12-18T21:47:21.922Z,-0.50
2018-12-18T21:49:50.312Z,-0.50
2018-12-18T21:52:18.661Z,-0.50
2018-12-18T21:54:47.010Z,-0.60
2018-12-18T21:57:15.415Z,-0.60
2018-12-18T21:59:47.069Z,-0.60
2018-12-18T22:02:15.405Z,-0.60
2018-12-18T22:04:43.819Z,-0.60
2018-12-18T22:07:12.228Z,-0.60
2018-12-18T22:09:40.574Z,-0.70
2018-12-18T22:12:08.994Z,-0.70
2018-12-18T22:14:37.451Z,-0.80
2018-12-18T22:17:05.850Z,-0.70
2018-12-18T22:19:34.165Z,-0.70
2018-12-18T22:22:02.574Z,-0.70
2018-12-18T22:24:30.933Z,-0.70
2018-12-18T22:26:59.161Z,-0.70
2018-12-18T22:29:27.444Z,-0.60
2018-12-18T22:31:55.638Z,-0.60
2018-12-18T22:34:23.845Z,-0.60
2018-12-18T22:36:52.134Z,-0.50
2018-12-18T22:39:20.351Z,-0.50
2018-12-18T22:41:48.569Z,-0.50
2018-12-18T22:44:16.806Z,-0.50
2018-12-18T22:46:44.992Z,-0.60
2018-12-18T22:49:13.202Z,-0.60
2018-12-18T22:51:41.417Z,-0.60
2018-12-18T22:54:09.658Z,-0.60
2018-12-18T22:56:37.910Z,-0.60
2018-12-18T22:59:06.153Z,-0.70
2018-12-18T23:01:38.247Z,-0.70
2018-12-18T23:04:06.634Z,-0.80
2018-12-18T23:06:34.834Z,-0.90
2018-12-18T23:09:04.049Z,-0.90
2018-12-18T23:11:32.275Z,-0.90
2018-12-18T23:14:00.601Z,-0.90
2018-12-18T23:16:28.946Z,-1.00
2018-12-18T23:18:57.178Z,-1.00
2018-12-18T23:21:25.391Z,-1.10
2018-12-18T23:23:53.626Z,-1.10
2018-12-18T23:26:21.850Z,-1.20
2018-12-18T23:28:50.148Z,-1.20
2018-12-18T23:31:18.602Z,-1.20
2018-12-18T23:33:47.150Z,-1.20
2018-12-18T23:36:15.346Z,-1.20
2018-12-18T23:38:43.575Z,-1.30
2018-12-18T23:41:11.759Z,-1.30
2018-12-18T23:43:39.969Z,-1.40
2018-12-18T23:46:08.173Z,-1.40
2018-12-18T23:48:39.716Z,-1.40
2018-12-18T23:51:06.815Z,-1.50
2018-12-18T23:53:35.428Z,-1.50
2018-12-18T23:56:03.697Z,-1.50
2018-12-18T23:58:31.922Z,-1.50
